sensor_id;sensor_type;location;lat;lon;timestamp;P1;durP1;ratioP1;P2;durP2;ratioP2
39680;SDS011;26327;42.550;23.120;2023-02-01T00:01:41;9.68;;;4.90;;
39680;SDS011;26327;42.550;23.120;2023-02-01T00:04:06;10.13;;;5.10;;
39680;SDS011;26327;42.550;23.120;2023-02-01T00:06:32;12.02;;;5.63;;
39680;SDS011;26327;42.550;23.120;2023-02-01T00:08:57;14.93;;;5.50;;
39680;SDS011;26327;42.550;23.120;2023-02-01T00:11:23;9.98;;;4.47;;
39680;SDS011;26327;42.550;23.120;2023-02-01T00:13:49;15.27;;;5.75;;
39680;SDS011;26327;42.550;23.120;2023-02-01T00:16:15;11.77;;;6.45;;
39680;SDS011;26327;42.550;23.120;2023-02-01T00:18:50;12.90;;;5.38;;
39680;SDS011;26327;42.550;23.120;2023-02-01T00:21:17;12.88;;;4.63;;
39680;SDS011;26327;42.550;23.120;2023-02-01T00:23:44;7.70;;;3.35;;
39680;SDS011;26327;42.550;23.120;2023-02-01T00:26:14;6.28;;;3.58;;
39680;SDS011;26327;42.550;23.120;2023-02-01T00:28:41;11.18;;;4.57;;
39680;SDS011;26327;42.550;23.120;2023-02-01T00:31:07;11.85;;;5.45;;
39680;SDS011;26327;42.550;23.120;2023-02-01T00:33:33;17.63;;;6.20;;
39680;SDS011;26327;42.550;23.120;2023-02-01T00:35:59;9.68;;;4.20;;
39680;SDS011;26327;42.550;23.120;2023-02-01T00:38:26;7.63;;;3.75;;
39680;SDS011;26327;42.550;23.120;2023-02-01T00:40:52;10.38;;;4.57;;
39680;SDS011;26327;42.550;23.120;2023-02-01T00:43:18;6.40;;;2.95;;
39680;SDS011;26327;42.550;23.120;2023-02-01T00:45:45;5.30;;;3.00;;
39680;SDS011;26327;42.550;23.120;2023-02-01T00:48:11;3.83;;;2.70;;
39680;SDS011;26327;42.550;23.120;2023-02-01T00:50:40;5.15;;;3.08;;
39680;SDS011;26327;42.550;23.120;2023-02-01T00:53:07;5.45;;;2.95;;
39680;SDS011;26327;42.550;23.120;2023-02-01T00:55:33;5.18;;;2.97;;
39680;SDS011;26327;42.550;23.120;2023-02-01T00:57:59;6.03;;;3.15;;
39680;SDS011;26327;42.550;23.120;2023-02-01T01:00:24;6.30;;;2.95;;
39680;SDS011;26327;42.550;23.120;2023-02-01T01:02:50;6.90;;;4.03;;
39680;SDS011;26327;42.550;23.120;2023-02-01T01:05:15;11.77;;;3.85;;
39680;SDS011;26327;42.550;23.120;2023-02-01T01:07:41;12.38;;;4.20;;
39680;SDS011;26327;42.550;23.120;2023-02-01T01:10:07;7.07;;;3.33;;
39680;SDS011;26327;42.550;23.120;2023-02-01T01:12:32;6.70;;;3.60;;
39680;SDS011;26327;42.550;23.120;2023-02-01T01:14:58;5.97;;;3.65;;
39680;SDS011;26327;42.550;23.120;2023-02-01T01:17:23;6.60;;;3.47;;
39680;SDS011;26327;42.550;23.120;2023-02-01T01:19:48;8.18;;;3.92;;
39680;SDS011;26327;42.550;23.120;2023-02-01T01:22:14;8.93;;;4.10;;
39680;SDS011;26327;42.550;23.120;2023-02-01T01:24:39;8.90;;;3.80;;
39680;SDS011;26327;42.550;23.120;2023-02-01T01:27:04;7.40;;;3.35;;
39680;SDS011;26327;42.550;23.120;2023-02-01T01:29:30;5.05;;;3.28;;
39680;SDS011;26327;42.550;23.120;2023-02-01T01:31:55;8.25;;;3.80;;
39680;SDS011;26327;42.550;23.120;2023-02-01T01:34:21;8.15;;;3.72;;
39680;SDS011;26327;42.550;23.120;2023-02-01T01:36:46;7.25;;;3.78;;
39680;SDS011;26327;42.550;23.120;2023-02-01T01:39:11;14.30;;;5.20;;
39680;SDS011;26327;42.550;23.120;2023-02-01T01:41:37;10.10;;;3.50;;
39680;SDS011;26327;42.550;23.120;2023-02-01T01:44:03;11.45;;;5.32;;
39680;SDS011;26327;42.550;23.120;2023-02-01T01:46:31;12.45;;;5.03;;
39680;SDS011;26327;42.550;23.120;2023-02-01T01:51:29;15.07;;;6.28;;
39680;SDS011;26327;42.550;23.120;2023-02-01T01:54:09;12.50;;;5.38;;
39680;SDS011;26327;42.550;23.120;2023-02-01T01:56:43;8.82;;;4.72;;
39680;SDS011;26327;42.550;23.120;2023-02-01T01:59:14;14.88;;;5.65;;
39680;SDS011;26327;42.550;23.120;2023-02-01T02:01:39;11.57;;;4.68;;
39680;SDS011;26327;42.550;23.120;2023-02-01T02:04:05;16.58;;;5.63;;
39680;SDS011;26327;42.550;23.120;2023-02-01T02:06:41;9.80;;;5.53;;
39680;SDS011;26327;42.550;23.120;2023-02-01T02:09:13;9.88;;;4.50;;
39680;SDS011;26327;42.550;23.120;2023-02-01T02:11:39;6.18;;;3.40;;
39680;SDS011;26327;42.550;23.120;2023-02-01T02:14:05;9.65;;;4.40;;
39680;SDS011;26327;42.550;23.120;2023-02-01T02:41:36;6.07;;;2.65;;
39680;SDS011;26327;42.550;23.120;2023-02-01T02:47:27;10.40;;;4.20;;
39680;SDS011;26327;42.550;23.120;2023-02-01T02:50:29;7.03;;;3.42;;
39680;SDS011;26327;42.550;23.120;2023-02-01T02:54:05;6.40;;;3.55;;
39680;SDS011;26327;42.550;23.120;2023-02-01T02:56:32;10.95;;;5.03;;
39680;SDS011;26327;42.550;23.120;2023-02-01T02:59:19;6.72;;;3.22;;
39680;SDS011;26327;42.550;23.120;2023-02-01T03:02:06;7.45;;;3.65;;
39680;SDS011;26327;42.550;23.120;2023-02-01T03:04:54;6.28;;;4.20;;
39680;SDS011;26327;42.550;23.120;2023-02-01T03:13:35;24.13;;;9.82;;
39680;SDS011;26327;42.550;23.120;2023-02-01T03:21:29;9.85;;;4.70;;
39680;SDS011;26327;42.550;23.120;2023-02-01T03:23:56;7.43;;;3.95;;
39680;SDS011;26327;42.550;23.120;2023-02-01T03:26:26;8.60;;;3.75;;
39680;SDS011;26327;42.550;23.120;2023-02-01T03:28:56;8.07;;;3.45;;
39680;SDS011;26327;42.550;23.120;2023-02-01T03:31:25;7.28;;;4.00;;
39680;SDS011;26327;42.550;23.120;2023-02-01T03:33:53;6.75;;;3.33;;
39680;SDS011;26327;42.550;23.120;2023-02-01T03:36:21;6.88;;;3.97;;
39680;SDS011;26327;42.550;23.120;2023-02-01T03:52:09;9.10;;;4.38;;
39680;SDS011;26327;42.550;23.120;2023-02-01T03:54:37;8.40;;;4.75;;
39680;SDS011;26327;42.550;23.120;2023-02-01T03:57:06;14.05;;;6.85;;
39680;SDS011;26327;42.550;23.120;2023-02-01T03:59:40;16.63;;;7.18;;
39680;SDS011;26327;42.550;23.120;2023-02-01T04:02:06;14.98;;;8.23;;
39680;SDS011;26327;42.550;23.120;2023-02-01T04:04:33;21.02;;;11.40;;
39680;SDS011;26327;42.550;23.120;2023-02-01T04:06:59;21.33;;;10.90;;
39680;SDS011;26327;42.550;23.120;2023-02-01T04:09:24;18.92;;;10.40;;
39680;SDS011;26327;42.550;23.120;2023-02-01T04:11:50;25.42;;;11.98;;
39680;SDS011;26327;42.550;23.120;2023-02-01T04:14:15;20.25;;;10.73;;
39680;SDS011;26327;42.550;23.120;2023-02-01T04:16:41;19.58;;;10.77;;
39680;SDS011;26327;42.550;23.120;2023-02-01T04:19:06;20.77;;;10.85;;
39680;SDS011;26327;42.550;23.120;2023-02-01T04:21:32;17.48;;;10.20;;
39680;SDS011;26327;42.550;23.120;2023-02-01T04:23:57;18.35;;;11.15;;
39680;SDS011;26327;42.550;23.120;2023-02-01T04:26:22;23.17;;;10.98;;
39680;SDS011;26327;42.550;23.120;2023-02-01T04:28:48;20.08;;;11.05;;
39680;SDS011;26327;42.550;23.120;2023-02-01T04:31:14;25.35;;;12.82;;
39680;SDS011;26327;42.550;23.120;2023-02-01T04:33:40;24.05;;;10.65;;
39680;SDS011;26327;42.550;23.120;2023-02-01T04:36:05;21.35;;;11.73;;
39680;SDS011;26327;42.550;23.120;2023-02-01T04:38:31;20.25;;;10.40;;
39680;SDS011;26327;42.550;23.120;2023-02-01T04:40:57;16.40;;;8.52;;
39680;SDS011;26327;42.550;23.120;2023-02-01T04:43:23;23.40;;;12.85;;
39680;SDS011;26327;42.550;23.120;2023-02-01T04:45:49;29.83;;;19.65;;
39680;SDS011;26327;42.550;23.120;2023-02-01T04:48:15;15.07;;;9.15;;
39680;SDS011;26327;42.550;23.120;2023-02-01T04:50:42;26.20;;;11.93;;
39680;SDS011;26327;42.550;23.120;2023-02-01T04:53:10;26.05;;;11.88;;
39680;SDS011;26327;42.550;23.120;2023-02-01T04:55:36;29.00;;;12.77;;
39680;SDS011;26327;42.550;23.120;2023-02-01T04:58:01;21.13;;;10.77;;
39680;SDS011;26327;42.550;23.120;2023-02-01T05:00:27;20.42;;;10.90;;
39680;SDS011;26327;42.550;23.120;2023-02-01T05:02:52;24.35;;;9.85;;
39680;SDS011;26327;42.550;23.120;2023-02-01T05:05:17;16.77;;;9.27;;
39680;SDS011;26327;42.550;23.120;2023-02-01T05:07:43;12.35;;;6.60;;
39680;SDS011;26327;42.550;23.120;2023-02-01T05:10:08;10.80;;;5.72;;
39680;SDS011;26327;42.550;23.120;2023-02-01T05:12:34;13.13;;;6.43;;
39680;SDS011;26327;42.550;23.120;2023-02-01T05:15:18;12.90;;;7.57;;
39680;SDS011;26327;42.550;23.120;2023-02-01T05:17:44;29.15;;;15.43;;
39680;SDS011;26327;42.550;23.120;2023-02-01T05:20:09;29.85;;;13.73;;
39680;SDS011;26327;42.550;23.120;2023-02-01T05:22:35;33.08;;;13.60;;
39680;SDS011;26327;42.550;23.120;2023-02-01T05:25:00;27.23;;;10.95;;
39680;SDS011;26327;42.550;23.120;2023-02-01T05:27:26;37.85;;;19.33;;
39680;SDS011;26327;42.550;23.120;2023-02-01T05:29:54;22.17;;;11.27;;
39680;SDS011;26327;42.550;23.120;2023-02-01T05:32:19;21.35;;;12.63;;
39680;SDS011;26327;42.550;23.120;2023-02-01T05:34:45;18.90;;;9.52;;
39680;SDS011;26327;42.550;23.120;2023-02-01T05:37:10;16.42;;;8.57;;
39680;SDS011;26327;42.550;23.120;2023-02-01T05:39:35;18.80;;;9.27;;
39680;SDS011;26327;42.550;23.120;2023-02-01T05:42:01;19.85;;;9.98;;
39680;SDS011;26327;42.550;23.120;2023-02-01T05:44:26;15.65;;;9.75;;
39680;SDS011;26327;42.550;23.120;2023-02-01T05:46:51;21.25;;;11.20;;
39680;SDS011;26327;42.550;23.120;2023-02-01T05:49:17;17.25;;;8.93;;
39680;SDS011;26327;42.550;23.120;2023-02-01T05:51:42;14.18;;;8.82;;
39680;SDS011;26327;42.550;23.120;2023-02-01T05:54:08;31.83;;;14.13;;
39680;SDS011;26327;42.550;23.120;2023-02-01T05:56:33;25.05;;;11.43;;
39680;SDS011;26327;42.550;23.120;2023-02-01T05:58:59;21.83;;;10.55;;
39680;SDS011;26327;42.550;23.120;2023-02-01T06:01:24;23.75;;;12.38;;
39680;SDS011;26327;42.550;23.120;2023-02-01T06:03:49;30.50;;;14.48;;
39680;SDS011;26327;42.550;23.120;2023-02-01T06:06:15;36.70;;;19.65;;
39680;SDS011;26327;42.550;23.120;2023-02-01T06:08:40;43.28;;;23.23;;
39680;SDS011;26327;42.550;23.120;2023-02-01T06:11:06;42.25;;;20.98;;
39680;SDS011;26327;42.550;23.120;2023-02-01T06:13:31;40.83;;;21.73;;
39680;SDS011;26327;42.550;23.120;2023-02-01T06:15:57;43.53;;;21.13;;
39680;SDS011;26327;42.550;23.120;2023-02-01T06:18:26;36.33;;;17.67;;
39680;SDS011;26327;42.550;23.120;2023-02-01T06:20:55;36.45;;;17.23;;
39680;SDS011;26327;42.550;23.120;2023-02-01T06:23:22;30.95;;;14.05;;
39680;SDS011;26327;42.550;23.120;2023-02-01T06:25:52;27.60;;;13.20;;
39680;SDS011;26327;42.550;23.120;2023-02-01T06:28:18;29.77;;;16.38;;
39680;SDS011;26327;42.550;23.120;2023-02-01T06:30:43;36.38;;;17.10;;
39680;SDS011;26327;42.550;23.120;2023-02-01T06:33:11;27.80;;;11.45;;
39680;SDS011;26327;42.550;23.120;2023-02-01T06:35:40;25.40;;;13.65;;
39680;SDS011;26327;42.550;23.120;2023-02-01T06:38:07;29.17;;;13.75;;
39680;SDS011;26327;42.550;23.120;2023-02-01T06:40:32;33.55;;;15.95;;
39680;SDS011;26327;42.550;23.120;2023-02-01T06:42:58;24.85;;;13.55;;
39680;SDS011;26327;42.550;23.120;2023-02-01T06:45:23;35.00;;;18.95;;
39680;SDS011;26327;42.550;23.120;2023-02-01T06:47:49;36.83;;;22.13;;
39680;SDS011;26327;42.550;23.120;2023-02-01T06:50:14;26.60;;;12.02;;
39680;SDS011;26327;42.550;23.120;2023-02-01T06:52:40;35.38;;;17.20;;
39680;SDS011;26327;42.550;23.120;2023-02-01T06:55:05;31.23;;;15.95;;
39680;SDS011;26327;42.550;23.120;2023-02-01T06:57:31;43.20;;;21.70;;
39680;SDS011;26327;42.550;23.120;2023-02-01T06:59:58;23.92;;;11.73;;
39680;SDS011;26327;42.550;23.120;2023-02-01T07:02:23;42.60;;;18.30;;
39680;SDS011;26327;42.550;23.120;2023-02-01T07:04:48;30.52;;;14.82;;
39680;SDS011;26327;42.550;23.120;2023-02-01T07:07:14;31.13;;;12.80;;
39680;SDS011;26327;42.550;23.120;2023-02-01T07:09:40;26.42;;;13.63;;
39680;SDS011;26327;42.550;23.120;2023-02-01T07:12:05;67.97;;;27.20;;
39680;SDS011;26327;42.550;23.120;2023-02-01T07:14:31;80.90;;;39.20;;
39680;SDS011;26327;42.550;23.120;2023-02-01T07:16:56;43.00;;;22.58;;
39680;SDS011;26327;42.550;23.120;2023-02-01T07:19:22;39.53;;;19.42;;
39680;SDS011;26327;42.550;23.120;2023-02-01T07:21:47;41.22;;;18.98;;
39680;SDS011;26327;42.550;23.120;2023-02-01T07:24:12;29.27;;;14.70;;
39680;SDS011;26327;42.550;23.120;2023-02-01T07:26:39;35.30;;;16.58;;
39680;SDS011;26327;42.550;23.120;2023-02-01T07:29:05;45.03;;;21.45;;
39680;SDS011;26327;42.550;23.120;2023-02-01T07:31:30;56.50;;;25.23;;
39680;SDS011;26327;42.550;23.120;2023-02-01T07:33:56;39.53;;;19.83;;
39680;SDS011;26327;42.550;23.120;2023-02-01T07:36:22;30.92;;;17.10;;
39680;SDS011;26327;42.550;23.120;2023-02-01T07:38:48;29.95;;;16.88;;
39680;SDS011;26327;42.550;23.120;2023-02-01T07:41:14;28.88;;;16.35;;
39680;SDS011;26327;42.550;23.120;2023-02-01T07:43:40;30.70;;;11.77;;
39680;SDS011;26327;42.550;23.120;2023-02-01T07:46:07;22.27;;;10.48;;
39680;SDS011;26327;42.550;23.120;2023-02-01T07:48:32;20.42;;;10.27;;
39680;SDS011;26327;42.550;23.120;2023-02-01T07:51:05;17.63;;;8.50;;
39680;SDS011;26327;42.550;23.120;2023-02-01T07:53:34;14.75;;;6.50;;
39680;SDS011;26327;42.550;23.120;2023-02-01T07:56:00;15.00;;;6.28;;
39680;SDS011;26327;42.550;23.120;2023-02-01T07:58:26;15.23;;;8.40;;
39680;SDS011;26327;42.550;23.120;2023-02-01T08:00:52;16.92;;;8.13;;
39680;SDS011;26327;42.550;23.120;2023-02-01T08:03:36;21.70;;;9.68;;
39680;SDS011;26327;42.550;23.120;2023-02-01T08:06:02;17.70;;;7.65;;
39680;SDS011;26327;42.550;23.120;2023-02-01T08:08:27;13.60;;;6.63;;
39680;SDS011;26327;42.550;23.120;2023-02-01T08:11:00;32.17;;;12.35;;
39680;SDS011;26327;42.550;23.120;2023-02-01T08:13:26;25.63;;;12.43;;
39680;SDS011;26327;42.550;23.120;2023-02-01T08:15:52;13.80;;;6.78;;
39680;SDS011;26327;42.550;23.120;2023-02-01T08:18:22;20.48;;;9.27;;
39680;SDS011;26327;42.550;23.120;2023-02-01T08:20:48;37.55;;;18.35;;
39680;SDS011;26327;42.550;23.120;2023-02-01T08:23:13;92.20;;;34.75;;
39680;SDS011;26327;42.550;23.120;2023-02-01T08:25:39;44.47;;;19.60;;
39680;SDS011;26327;42.550;23.120;2023-02-01T08:28:05;45.80;;;19.58;;
39680;SDS011;26327;42.550;23.120;2023-02-01T08:30:31;47.50;;;20.50;;
39680;SDS011;26327;42.550;23.120;2023-02-01T08:32:57;30.50;;;13.95;;
39680;SDS011;26327;42.550;23.120;2023-02-01T08:35:22;43.10;;;18.95;;
39680;SDS011;26327;42.550;23.120;2023-02-01T08:37:49;40.05;;;19.23;;
39680;SDS011;26327;42.550;23.120;2023-02-01T08:40:15;21.75;;;11.23;;
39680;SDS011;26327;42.550;23.120;2023-02-01T08:42:41;38.30;;;19.35;;
39680;SDS011;26327;42.550;23.120;2023-02-01T08:45:19;56.13;;;21.13;;
39680;SDS011;26327;42.550;23.120;2023-02-01T08:47:50;28.77;;;11.63;;
39680;SDS011;26327;42.550;23.120;2023-02-01T08:50:17;36.15;;;15.18;;
39680;SDS011;26327;42.550;23.120;2023-02-01T08:52:43;36.72;;;14.30;;
39680;SDS011;26327;42.550;23.120;2023-02-01T08:55:09;60.83;;;25.90;;
39680;SDS011;26327;42.550;23.120;2023-02-01T08:57:35;21.08;;;9.10;;
39680;SDS011;26327;42.550;23.120;2023-02-01T09:00:00;20.52;;;9.05;;
39680;SDS011;26327;42.550;23.120;2023-02-01T09:02:26;17.45;;;8.85;;
39680;SDS011;26327;42.550;23.120;2023-02-01T09:04:52;18.33;;;5.82;;
39680;SDS011;26327;42.550;23.120;2023-02-01T09:07:17;29.70;;;11.93;;
39680;SDS011;26327;42.550;23.120;2023-02-01T09:09:43;20.65;;;8.60;;
39680;SDS011;26327;42.550;23.120;2023-02-01T09:12:09;22.05;;;9.73;;
39680;SDS011;26327;42.550;23.120;2023-02-01T09:14:34;14.35;;;7.57;;
39680;SDS011;26327;42.550;23.120;2023-02-01T09:17:00;39.88;;;14.48;;
39680;SDS011;26327;42.550;23.120;2023-02-01T09:19:26;40.90;;;13.50;;
39680;SDS011;26327;42.550;23.120;2023-02-01T09:21:51;28.98;;;10.52;;
39680;SDS011;26327;42.550;23.120;2023-02-01T09:24:16;27.73;;;9.70;;
39680;SDS011;26327;42.550;23.120;2023-02-01T09:26:42;22.58;;;8.45;;
39680;SDS011;26327;42.550;23.120;2023-02-01T09:29:08;11.85;;;4.00;;
39680;SDS011;26327;42.550;23.120;2023-02-01T09:31:36;21.23;;;8.88;;
39680;SDS011;26327;42.550;23.120;2023-02-01T09:34:02;22.70;;;11.07;;
39680;SDS011;26327;42.550;23.120;2023-02-01T09:36:28;8.27;;;3.05;;
39680;SDS011;26327;42.550;23.120;2023-02-01T09:38:54;11.07;;;2.63;;
39680;SDS011;26327;42.550;23.120;2023-02-01T09:41:30;12.20;;;2.05;;
39680;SDS011;26327;42.550;23.120;2023-02-01T09:44:08;15.90;;;7.18;;
39680;SDS011;26327;42.550;23.120;2023-02-01T09:46:47;16.50;;;6.28;;
39680;SDS011;26327;42.550;23.120;2023-02-01T09:49:14;16.52;;;6.15;;
39680;SDS011;26327;42.550;23.120;2023-02-01T09:51:45;14.32;;;5.57;;
39680;SDS011;26327;42.550;23.120;2023-02-01T09:54:14;17.92;;;6.25;;
39680;SDS011;26327;42.550;23.120;2023-02-01T10:02:04;9.20;;;3.42;;
39680;SDS011;26327;42.550;23.120;2023-02-01T10:04:36;9.95;;;3.58;;
39680;SDS011;26327;42.550;23.120;2023-02-01T10:07:11;8.15;;;3.10;;
39680;SDS011;26327;42.550;23.120;2023-02-01T10:20:23;15.75;;;6.20;;
39680;SDS011;26327;42.550;23.120;2023-02-01T10:28:50;24.10;;;10.02;;
39680;SDS011;26327;42.550;23.120;2023-02-01T10:31:18;27.38;;;10.90;;
39680;SDS011;26327;42.550;23.120;2023-02-01T10:33:47;15.90;;;7.32;;
39680;SDS011;26327;42.550;23.120;2023-02-01T10:38:42;50.67;;;18.20;;
39680;SDS011;26327;42.550;23.120;2023-02-01T10:41:11;41.13;;;15.65;;
39680;SDS011;26327;42.550;23.120;2023-02-01T10:43:40;25.13;;;10.38;;
39680;SDS011;26327;42.550;23.120;2023-02-01T10:46:06;16.30;;;6.75;;
39680;SDS011;26327;42.550;23.120;2023-02-01T10:48:32;10.95;;;4.47;;
39680;SDS011;26327;42.550;23.120;2023-02-01T10:50:59;5.75;;;2.33;;
39680;SDS011;26327;42.550;23.120;2023-02-01T10:53:35;4.72;;;2.17;;
39680;SDS011;26327;42.550;23.120;2023-02-01T10:56:10;4.43;;;1.55;;
39680;SDS011;26327;42.550;23.120;2023-02-01T10:58:45;6.80;;;2.40;;
39680;SDS011;26327;42.550;23.120;2023-02-01T11:01:58;4.25;;;2.40;;
39680;SDS011;26327;42.550;23.120;2023-02-01T11:04:10;20.50;;;8.98;;
39680;SDS011;26327;42.550;23.120;2023-02-01T11:06:39;17.45;;;5.43;;
39680;SDS011;26327;42.550;23.120;2023-02-01T11:11:32;6.38;;;2.53;;
39680;SDS011;26327;42.550;23.120;2023-02-01T11:14:40;17.95;;;9.32;;
39680;SDS011;26327;42.550;23.120;2023-02-01T11:22:38;5.72;;;2.58;;
39680;SDS011;26327;42.550;23.120;2023-02-01T11:25:13;8.32;;;4.15;;
39680;SDS011;26327;42.550;23.120;2023-02-01T11:27:41;13.27;;;4.97;;
39680;SDS011;26327;42.550;23.120;2023-02-01T11:30:06;7.30;;;2.72;;
39680;SDS011;26327;42.550;23.120;2023-02-01T11:32:33;8.82;;;4.93;;
39680;SDS011;26327;42.550;23.120;2023-02-01T11:35:02;7.18;;;3.22;;
39680;SDS011;26327;42.550;23.120;2023-02-01T11:37:34;13.75;;;8.18;;
39680;SDS011;26327;42.550;23.120;2023-02-01T11:40:09;16.95;;;10.88;;
39680;SDS011;26327;42.550;23.120;2023-02-01T11:42:57;25.27;;;12.77;;
39680;SDS011;26327;42.550;23.120;2023-02-01T11:47:53;15.25;;;10.68;;
39680;SDS011;26327;42.550;23.120;2023-02-01T11:56:33;5.13;;;3.03;;
39680;SDS011;26327;42.550;23.120;2023-02-01T12:07:47;5.47;;;1.90;;
39680;SDS011;26327;42.550;23.120;2023-02-01T12:13:15;5.22;;;2.03;;
39680;SDS011;26327;42.550;23.120;2023-02-01T12:16:08;2.20;;;1.10;;
39680;SDS011;26327;42.550;23.120;2023-02-01T12:21:48;12.77;;;6.55;;
39680;SDS011;26327;42.550;23.120;2023-02-01T12:43:50;3.45;;;1.80;;
39680;SDS011;26327;42.550;23.120;2023-02-01T12:46:24;6.80;;;3.17;;
39680;SDS011;26327;42.550;23.120;2023-02-01T12:49:00;5.85;;;2.88;;
39680;SDS011;26327;42.550;23.120;2023-02-01T12:51:36;8.63;;;4.10;;
39680;SDS011;26327;42.550;23.120;2023-02-01T12:56:43;7.38;;;3.70;;
39680;SDS011;26327;42.550;23.120;2023-02-01T12:59:56;4.88;;;2.92;;
39680;SDS011;26327;42.550;23.120;2023-02-01T13:05:19;4.85;;;1.98;;
39680;SDS011;26327;42.550;23.120;2023-02-01T13:08:06;7.90;;;3.53;;
39680;SDS011;26327;42.550;23.120;2023-02-01T13:10:36;10.32;;;5.22;;
39680;SDS011;26327;42.550;23.120;2023-02-01T13:15:57;6.43;;;3.70;;
39680;SDS011;26327;42.550;23.120;2023-02-01T13:18:33;6.07;;;2.30;;
39680;SDS011;26327;42.550;23.120;2023-02-01T13:21:24;5.18;;;3.05;;
39680;SDS011;26327;42.550;23.120;2023-02-01T13:23:52;12.38;;;6.35;;
39680;SDS011;26327;42.550;23.120;2023-02-01T13:26:18;10.40;;;7.43;;
39680;SDS011;26327;42.550;23.120;2023-02-01T13:28:51;7.07;;;4.32;;
39680;SDS011;26327;42.550;23.120;2023-02-01T13:43:04;9.95;;;4.40;;
39680;SDS011;26327;42.550;23.120;2023-02-01T13:45:52;14.88;;;6.88;;
39680;SDS011;26327;42.550;23.120;2023-02-01T13:48:24;12.50;;;4.40;;
39680;SDS011;26327;42.550;23.120;2023-02-01T13:50:58;4.97;;;2.17;;
39680;SDS011;26327;42.550;23.120;2023-02-01T13:53:29;7.63;;;2.50;;
39680;SDS011;26327;42.550;23.120;2023-02-01T13:55:58;7.50;;;3.63;;
39680;SDS011;26327;42.550;23.120;2023-02-01T13:58:31;20.35;;;7.20;;
39680;SDS011;26327;42.550;23.120;2023-02-01T14:03:46;6.75;;;4.43;;
39680;SDS011;26327;42.550;23.120;2023-02-01T14:06:16;11.80;;;5.65;;
39680;SDS011;26327;42.550;23.120;2023-02-01T14:11:42;6.35;;;3.20;;
39680;SDS011;26327;42.550;23.120;2023-02-01T14:19:27;4.40;;;2.88;;
39680;SDS011;26327;42.550;23.120;2023-02-01T14:22:01;6.70;;;3.58;;
39680;SDS011;26327;42.550;23.120;2023-02-01T14:24:49;14.32;;;8.75;;
39680;SDS011;26327;42.550;23.120;2023-02-01T14:27:20;19.25;;;8.70;;
39680;SDS011;26327;42.550;23.120;2023-02-01T14:29:52;15.10;;;7.93;;
39680;SDS011;26327;42.550;23.120;2023-02-01T14:32:44;20.95;;;11.05;;
39680;SDS011;26327;42.550;23.120;2023-02-01T14:35:21;21.90;;;11.32;;
39680;SDS011;26327;42.550;23.120;2023-02-01T14:37:51;21.88;;;13.02;;
39680;SDS011;26327;42.550;23.120;2023-02-01T14:40:26;22.70;;;12.10;;
39680;SDS011;26327;42.550;23.120;2023-02-01T14:42:53;16.63;;;9.13;;
39680;SDS011;26327;42.550;23.120;2023-02-01T14:55:43;17.73;;;7.55;;
39680;SDS011;26327;42.550;23.120;2023-02-01T15:00:53;20.23;;;10.13;;
39680;SDS011;26327;42.550;23.120;2023-02-01T15:06:04;54.95;;;26.23;;
39680;SDS011;26327;42.550;23.120;2023-02-01T15:08:37;66.65;;;27.60;;
39680;SDS011;26327;42.550;23.120;2023-02-01T15:11:14;53.45;;;22.05;;
39680;SDS011;26327;42.550;23.120;2023-02-01T15:13:47;43.10;;;20.73;;
39680;SDS011;26327;42.550;23.120;2023-02-01T15:16:15;70.60;;;30.15;;
39680;SDS011;26327;42.550;23.120;2023-02-01T15:18:42;30.50;;;12.25;;
39680;SDS011;26327;42.550;23.120;2023-02-01T15:21:21;42.38;;;20.27;;
39680;SDS011;26327;42.550;23.120;2023-02-01T15:23:47;56.97;;;33.58;;
39680;SDS011;26327;42.550;23.120;2023-02-01T15:26:26;59.78;;;33.13;;
39680;SDS011;26327;42.550;23.120;2023-02-01T15:28:53;65.90;;;25.73;;
39680;SDS011;26327;42.550;23.120;2023-02-01T15:31:42;59.05;;;25.77;;
39680;SDS011;26327;42.550;23.120;2023-02-01T15:34:11;105.13;;;43.55;;
39680;SDS011;26327;42.550;23.120;2023-02-01T15:36:37;115.78;;;50.55;;
39680;SDS011;26327;42.550;23.120;2023-02-01T15:39:20;178.75;;;73.30;;
39680;SDS011;26327;42.550;23.120;2023-02-01T15:41:56;160.85;;;62.88;;
39680;SDS011;26327;42.550;23.120;2023-02-01T15:46:54;95.10;;;39.15;;
39680;SDS011;26327;42.550;23.120;2023-02-01T15:51:51;146.40;;;65.65;;
39680;SDS011;26327;42.550;23.120;2023-02-01T15:54:31;63.80;;;32.28;;
39680;SDS011;26327;42.550;23.120;2023-02-01T15:57:06;32.40;;;17.45;;
39680;SDS011;26327;42.550;23.120;2023-02-01T15:59:41;37.70;;;19.42;;
39680;SDS011;26327;42.550;23.120;2023-02-01T16:05:03;31.60;;;16.52;;
39680;SDS011;26327;42.550;23.120;2023-02-01T16:07:30;30.50;;;16.48;;
39680;SDS011;26327;42.550;23.120;2023-02-01T16:09:58;34.95;;;18.02;;
39680;SDS011;26327;42.550;23.120;2023-02-01T16:15:03;24.60;;;12.38;;
39680;SDS011;26327;42.550;23.120;2023-02-01T16:17:30;27.42;;;15.82;;
39680;SDS011;26327;42.550;23.120;2023-02-01T16:19:56;32.38;;;16.35;;
39680;SDS011;26327;42.550;23.120;2023-02-01T16:22:22;31.13;;;18.52;;
39680;SDS011;26327;42.550;23.120;2023-02-01T16:24:47;49.47;;;22.85;;
39680;SDS011;26327;42.550;23.120;2023-02-01T16:27:13;68.20;;;33.60;;
39680;SDS011;26327;42.550;23.120;2023-02-01T16:29:38;75.28;;;31.55;;
39680;SDS011;26327;42.550;23.120;2023-02-01T16:32:04;73.60;;;32.75;;
39680;SDS011;26327;42.550;23.120;2023-02-01T16:34:30;82.25;;;36.00;;
39680;SDS011;26327;42.550;23.120;2023-02-01T16:36:55;59.58;;;28.40;;
39680;SDS011;26327;42.550;23.120;2023-02-01T16:39:28;59.33;;;27.95;;
39680;SDS011;26327;42.550;23.120;2023-02-01T16:41:54;51.42;;;23.02;;
39680;SDS011;26327;42.550;23.120;2023-02-01T16:44:20;38.75;;;17.13;;
39680;SDS011;26327;42.550;23.120;2023-02-01T16:46:46;30.10;;;13.35;;
39680;SDS011;26327;42.550;23.120;2023-02-01T16:49:19;47.72;;;20.02;;
39680;SDS011;26327;42.550;23.120;2023-02-01T16:51:48;54.50;;;21.33;;
39680;SDS011;26327;42.550;23.120;2023-02-01T16:54:17;51.22;;;22.25;;
39680;SDS011;26327;42.550;23.120;2023-02-01T16:56:43;64.60;;;29.02;;
39680;SDS011;26327;42.550;23.120;2023-02-01T16:59:11;28.27;;;13.82;;
39680;SDS011;26327;42.550;23.120;2023-02-01T17:01:36;63.55;;;26.95;;
39680;SDS011;26327;42.550;23.120;2023-02-01T17:04:02;47.72;;;20.13;;
39680;SDS011;26327;42.550;23.120;2023-02-01T17:06:28;47.45;;;18.13;;
39680;SDS011;26327;42.550;23.120;2023-02-01T17:08:57;55.90;;;22.65;;
39680;SDS011;26327;42.550;23.120;2023-02-01T17:11:24;50.13;;;18.88;;
39680;SDS011;26327;42.550;23.120;2023-02-01T17:13:50;40.40;;;14.02;;
39680;SDS011;26327;42.550;23.120;2023-02-01T17:18:45;26.10;;;10.82;;
39680;SDS011;26327;42.550;23.120;2023-02-01T17:21:14;19.38;;;7.82;;
39680;SDS011;26327;42.550;23.120;2023-02-01T17:23:40;16.73;;;7.05;;
39680;SDS011;26327;42.550;23.120;2023-02-01T17:26:08;13.48;;;6.85;;
39680;SDS011;26327;42.550;23.120;2023-02-01T17:28:34;8.05;;;3.83;;
39680;SDS011;26327;42.550;23.120;2023-02-01T17:30:59;12.93;;;4.45;;
39680;SDS011;26327;42.550;23.120;2023-02-01T17:33:27;12.85;;;6.32;;
39680;SDS011;26327;42.550;23.120;2023-02-01T17:35:56;11.50;;;5.13;;
39680;SDS011;26327;42.550;23.120;2023-02-01T17:38:22;6.82;;;2.80;;
39680;SDS011;26327;42.550;23.120;2023-02-01T17:40:48;5.60;;;3.10;;